Time;durP1;ratioP1;P1;durP2;ratioP2;P2;SDS_P1;SDS_P2;PMS_P1;PMS_P2;Temp;Humidity;BMP_temperature;BMP_pressure;BME280_temperature;BME280_humidity;BME280_pressure;Samples;Min_cycle;Max_cycle;Signal;HPM_P1;HPM_P2
2021/06/05 00:00:44;;;;;;;359.27;124.57;;;;;16.30;101471.00;;;;10500870;28;20686;-78
2021/06/05 00:05:57;;;;;;;321.40;128.33;;;;;16.20;101464.00;;;;10526028;28;20659;-77
2021/06/05 00:11:04;;;;;;;347.43;128.00;;;;;16.20;101476.00;;;;10510608;28;20185;-78
2021/06/05 00:16:09;;;;;;;282.43;131.00;;;;;16.20;101473.00;;;;10500575;28;20239;-79
2021/06/05 00:21:12;;;;;;;295.33;134.67;;;;;16.20;101487.00;;;;10470777;28;20260;-78
2021/06/05 00:26:14;;;;;;;305.27;132.57;;;;;16.20;101484.00;;;;10485402;28;20740;-77
2021/06/05 00:31:17;;;;;;;319.40;137.67;;;;;16.20;101484.00;;;;10518156;28;20197;-79
2021/06/05 00:36:19;;;;;;;345.10;140.03;;;;;16.20;101481.00;;;;10501303;28;20250;-79
2021/06/05 00:41:26;;;;;;;334.53;140.77;;;;;16.20;101478.00;;;;10500195;28;20734;-79
2021/06/05 00:46:30;;;;;;;344.47;143.23;;;;;16.20;101484.00;;;;10480363;28;20677;-78
2021/06/05 00:52:01;;;;;;;383.83;151.23;;;;;16.20;101483.00;;;;10516389;28;20677;-78
2021/06/05 00:57:07;;;;;;;344.30;143.20;;;;;16.10;101478.00;;;;10512945;28;20250;-78
2021/06/05 01:02:12;;;;;;;320.33;135.20;;;;;16.00;101485.00;;;;10550252;28;20213;-77
2021/06/05 01:07:22;;;;;;;318.53;139.10;;;;;16.00;101484.00;;;;10464117;28;20205;-78
2021/06/05 01:12:55;;;;;;;270.33;127.37;;;;;16.00;101483.00;;;;10472856;28;20197;-79
2021/06/05 01:18:26;;;;;;;287.83;126.87;;;;;16.00;101471.00;;;;10505348;28;20193;-78
2021/06/05 01:23:31;;;;;;;314.40;134.60;;;;;16.00;101479.00;;;;10484212;28;20197;-79
2021/06/05 01:28:40;;;;;;;271.30;117.90;;;;;16.00;101483.00;;;;10497272;28;20239;-78
2021/06/05 01:33:44;;;;;;;271.80;115.87;;;;;16.00;101479.00;;;;10461534;28;20690;-77
2021/06/05 01:38:55;;;;;;;250.57;117.93;;;;;16.00;101465.00;;;;10456358;28;20190;-78
2021/06/05 01:44:01;;;;;;;331.73;124.77;;;;;16.00;101479.00;;;;10455504;28;20208;-79
2021/06/05 01:49:05;;;;;;;296.23;123.90;;;;;16.00;101491.00;;;;10471711;28;20599;-79
2021/06/05 01:54:22;;;;;;;325.53;132.07;;;;;16.10;101484.00;;;;10463059;28;20219;-78
2021/06/05 01:59:29;;;;;;;344.03;131.50;;;;;16.20;101493.00;;;;10529795;28;20184;-79
2021/06/05 02:04:35;;;;;;;382.17;134.83;;;;;16.20;101485.00;;;;10512588;28;20203;-79
2021/06/05 02:09:38;;;;;;;311.77;131.40;;;;;16.20;101481.00;;;;10529383;28;20829;-78
2021/06/05 02:14:56;;;;;;;269.77;124.27;;;;;16.20;101481.00;;;;10502154;28;20225;-78
2021/06/05 02:20:07;;;;;;;286.83;128.20;;;;;16.20;101473.00;;;;10438028;28;20196;-78
2021/06/05 02:25:21;;;;;;;289.07;127.13;;;;;16.20;101479.00;;;;10453974;28;20235;-79
2021/06/05 02:30:25;;;;;;;247.17;120.40;;;;;16.20;101470.00;;;;10470482;28;20305;-78
2021/06/05 02:35:33;;;;;;;347.43;137.47;;;;;16.20;101468.00;;;;10486929;28;20688;-78
2021/06/05 02:40:45;;;;;;;415.87;133.50;;;;;16.20;101483.00;;;;10455135;28;20898;-79
2021/06/05 02:46:01;;;;;;;412.27;124.30;;;;;16.20;101478.00;;;;10511437;28;20193;-79
2021/06/05 02:51:05;;;;;;;405.43;123.80;;;;;16.10;101486.00;;;;10512416;28;20208;-79
2021/06/05 02:56:09;;;;;;;408.23;122.57;;;;;16.00;101483.00;;;;10490613;28;20208;-79
2021/06/05 03:01:12;;;;;;;385.07;120.90;;;;;15.90;101494.00;;;;10453039;28;20220;-79
2021/06/05 03:06:17;;;;;;;434.67;126.73;;;;;15.90;101488.00;;;;10504344;28;20662;-79
2021/06/05 03:11:21;;;;;;;315.40;108.57;;;;;15.80;101484.00;;;;10494163;28;20219;-78
2021/06/05 03:16:29;;;;;;;320.60;110.20;;;;;15.70;101488.00;;;;10488920;28;20193;-78
2021/06/05 03:21:33;;;;;;;306.40;109.83;;;;;15.60;101483.00;;;;10468880;28;20185;-78
2021/06/05 03:26:47;;;;;;;305.87;109.63;;;;;15.60;101486.00;;;;10478668;28;20204;-78
2021/06/05 03:31:49;;;;;;;385.63;118.00;;;;;15.50;101475.00;;;;10438157;28;20505;-79
2021/06/05 03:36:52;;;;;;;383.53;116.47;;;;;15.50;101482.00;;;;10543132;28;20197;-78
2021/06/05 03:41:56;;;;;;;344.80;111.70;;;;;15.50;101480.00;;;;10509945;28;20185;-79
2021/06/05 03:46:58;;;;;;;430.17;117.73;;;;;15.40;101476.00;;;;10492431;28;20219;-78
2021/06/05 03:52:02;;;;;;;348.53;110.00;;;;;15.30;101474.00;;;;10509046;28;20240;-79
2021/06/05 03:57:05;;;;;;;337.47;112.27;;;;;15.30;101475.00;;;;10512090;28;20197;-79
2021/06/05 04:02:07;;;;;;;304.63;102.23;;;;;15.20;101486.00;;;;10501327;28;20193;-78
2021/06/05 04:07:09;;;;;;;338.10;106.87;;;;;15.20;101478.00;;;;10517903;28;20231;-79
2021/06/05 04:12:12;;;;;;;241.13;91.30;;;;;15.10;101481.00;;;;10517181;28;20304;-78
2021/06/05 04:17:14;;;;;;;216.93;86.83;;;;;15.00;101490.00;;;;10507435;28;20186;-77
2021/06/05 04:22:16;;;;;;;280.00;100.47;;;;;15.00;101481.00;;;;10491911;28;20198;-78
2021/06/05 04:27:18;;;;;;;243.53;92.63;;;;;15.00;101487.00;;;;10482184;28;20205;-78
2021/06/05 04:32:20;;;;;;;226.17;89.33;;;;;14.90;101485.00;;;;10479719;28;20251;-78
2021/06/05 04:37:22;;;;;;;167.00;69.03;;;;;14.90;101475.00;;;;10458316;28;20189;-79
2021/06/05 04:42:24;;;;;;;140.17;75.40;;;;;14.80;101482.00;;;;10440910;28;20220;-78
2021/06/05 04:47:26;;;;;;;166.80;84.97;;;;;14.80;101484.00;;;;10457718;28;20564;-79
2021/06/05 04:52:28;;;;;;;185.27;87.00;;;;;14.80;101486.00;;;;10456783;28;20216;-78
2021/06/05 04:57:30;;;;;;;148.73;78.97;;;;;14.90;101496.00;;;;10524364;28;20201;-80
2021/06/05 05:02:33;;;;;;;125.53;75.23;;;;;14.90;101510.00;;;;10495778;28;20193;-80
2021/06/05 05:07:35;;;;;;;128.73;70.10;;;;;14.80;101511.00;;;;10513470;28;20676;-79
2021/06/05 05:12:36;;;;;;;118.13;73.77;;;;;14.80;101512.00;;;;10513559;28;20208;-79
2021/06/05 05:17:38;;;;;;;119.13;72.27;;;;;14.80;101513.00;;;;10471413;28;20194;-79
2021/06/05 05:22:40;;;;;;;116.90;72.00;;;;;14.80;101518.00;;;;10471846;28;20208;-78
2021/06/05 05:27:43;;;;;;;128.13;73.20;;;;;14.80;101535.00;;;;10483019;28;20770;-79
2021/06/05 05:32:45;;;;;;;120.67;74.17;;;;;14.70;101528.00;;;;10488159;28;20225;-79
2021/06/05 05:37:47;;;;;;;121.33;74.10;;;;;14.70;101537.00;;;;10472895;28;20186;-79
2021/06/05 05:42:49;;;;;;;121.67;69.77;;;;;14.80;101531.00;;;;10455957;28;20189;-79
2021/06/05 05:47:54;;;;;;;134.93;76.30;;;;;14.80;101531.00;;;;10455064;28;20225;-79
2021/06/05 05:52:56;;;;;;;132.77;78.53;;;;;15.00;101534.00;;;;10489392;28;20206;-78
2021/06/05 05:58:04;;;;;;;123.13;75.90;;;;;15.10;101546.00;;;;10477135;28;20228;-79
2021/06/05 06:03:06;;;;;;;133.73;74.43;;;;;15.00;101554.00;;;;10513164;28;20239;-78
2021/06/05 06:08:11;;;;;;;124.43;75.10;;;;;15.00;101565.00;;;;10495308;28;20712;-78
2021/06/05 06:13:12;;;;;;;109.97;73.70;;;;;15.00;101572.00;;;;10494566;28;20201;-78
2021/06/05 06:18:15;;;;;;;127.43;76.23;;;;;15.00;101573.00;;;;10485804;28;20216;-78
2021/06/05 06:23:24;;;;;;;117.23;74.43;;;;;15.00;101578.00;;;;10453157;28;20194;-79
2021/06/05 06:28:32;;;;;;;118.37;73.90;;;;;15.00;101586.00;;;;10486931;28;20198;-79
2021/06/05 06:33:34;;;;;;;108.83;68.90;;;;;15.00;101601.00;;;;10477808;28;20564;-79
2021/06/05 06:38:40;;;;;;;106.00;71.13;;;;;15.00;101606.00;;;;10511157;28;20196;-78
2021/06/05 06:43:43;;;;;;;115.47;66.67;;;;;15.00;101609.00;;;;10476886;28;20303;-78
2021/06/05 06:48:45;;;;;;;110.57;68.10;;;;;15.00;101623.00;;;;10495717;28;20749;-79
2021/06/05 06:53:47;;;;;;;118.87;68.23;;;;;14.90;101622.00;;;;10509707;28;20211;-78
2021/06/05 06:58:50;;;;;;;119.00;61.97;;;;;14.90;101627.00;;;;10509697;28;20205;-78
2021/06/05 07:03:52;;;;;;;117.47;60.40;;;;;14.90;101634.00;;;;10482977;28;20726;-78
2021/06/05 07:08:55;;;;;;;114.07;61.33;;;;;14.90;101638.00;;;;10457235;28;20632;-77
2021/06/05 07:13:59;;;;;;;133.20;63.43;;;;;14.80;101644.00;;;;10477334;28;20216;-77
2021/06/05 07:19:02;;;;;;;133.27;66.07;;;;;14.90;101642.00;;;;10468626;28;20785;-78
2021/06/05 07:24:04;;;;;;;149.93;66.90;;;;;14.90;101645.00;;;;10486691;28;20569;-78
2021/06/05 07:29:11;;;;;;;143.43;65.93;;;;;15.00;101655.00;;;;10510169;28;20203;-78
2021/06/05 07:34:14;;;;;;;139.03;64.90;;;;;15.00;101656.00;;;;10510845;28;20220;-77
2021/06/05 07:39:20;;;;;;;144.20;65.73;;;;;15.00;101665.00;;;;10488717;28;20201;-77
2021/06/05 07:44:23;;;;;;;140.50;64.60;;;;;15.10;101656.00;;;;10480439;28;20188;-77
2021/06/05 07:49:28;;;;;;;139.57;63.13;;;;;15.10;101663.00;;;;10495208;28;20196;-79
2021/06/05 07:54:31;;;;;;;124.70;61.83;;;;;15.10;101661.00;;;;10474756;28;20206;-79
2021/06/05 07:59:33;;;;;;;122.27;61.10;;;;;15.20;101655.00;;;;10486201;28;20193;-78
2021/06/05 08:04:35;;;;;;;86.93;48.43;;;;;15.20;101673.00;;;;10460203;28;20197;-78
2021/06/05 08:09:38;;;;;;;86.33;50.17;;;;;15.20;101664.00;;;;10476738;28;20255;-78
2021/06/05 08:14:40;;;;;;;94.80;50.07;;;;;15.30;101672.00;;;;10507956;28;20702;-82
2021/06/05 08:19:41;;;;;;;83.63;46.00;;;;;15.40;101667.00;;;;10489826;28;20196;-79
2021/06/05 08:24:43;;;;;;;68.30;44.27;;;;;15.40;101665.00;;;;10470055;28;20232;-80
2021/06/05 08:29:45;;;;;;;76.13;45.83;;;;;15.60;101666.00;;;;10481120;28;20190;-79
2021/06/05 08:34:48;;;;;;;64.83;45.63;;;;;15.80;101664.00;;;;10471777;28;20580;-77
2021/06/05 08:39:52;;;;;;;55.93;39.50;;;;;15.90;101665.00;;;;10503774;28;20197;-79
2021/06/05 08:44:57;;;;;;;42.10;34.90;;;;;15.90;101663.00;;;;10481968;28;20192;-78
2021/06/05 08:50:14;;;;;;;45.77;37.60;;;;;15.90;101651.00;;;;10499550;28;20275;-78
2021/06/05 08:55:41;;;;;;;39.43;34.33;;;;;16.00;101658.00;;;;10510712;28;20556;-78
2021/06/05 09:00:46;;;;;;;42.50;35.50;;;;;16.60;101669.00;;;;10485305;28;20181;-79
2021/06/05 09:06:01;;;;;;;42.90;36.73;;;;;17.00;101665.00;;;;10481359;28;20198;-79
2021/06/05 09:11:04;;;;;;;41.60;33.77;;;;;17.20;101681.00;;;;10515651;28;20209;-79
2021/06/05 09:16:18;;;;;;;35.27;30.07;;;;;17.00;101686.00;;;;10479936;28;20244;-79
2021/06/05 09:21:56;;;;;;;36.37;32.40;;;;;16.90;101680.00;;;;10525140;28;20288;-78
2021/06/05 09:27:08;;;;;;;33.53;27.93;;;;;16.80;101696.00;;;;10520727;28;20207;-78
2021/06/05 09:32:12;;;;;;;32.83;29.07;;;;;16.80;101718.00;;;;10511854;28;20223;-77
2021/06/05 09:37:33;;;;;;;32.57;27.13;;;;;16.60;101713.00;;;;10513293;28;20192;-77
2021/06/05 09:42:41;;;;;;;32.30;28.83;;;;;16.30;101728.00;;;;10499437;28;20197;-77
2021/06/05 09:47:43;;;;;;;41.83;34.07;;;;;16.20;101729.00;;;;10517326;28;20206;-78
2021/06/05 09:52:45;;;;;;;46.27;37.87;;;;;16.10;101722.00;;;;10492649;28;20207;-78
2021/06/05 09:57:50;;;;;;;41.97;36.83;;;;;16.30;101727.00;;;;10495372;28;20288;-78
2021/06/05 10:03:11;;;;;;;40.07;35.10;;;;;16.10;101733.00;;;;10480506;28;20193;-78
2021/06/05 10:08:41;;;;;;;47.67;38.57;;;;;16.00;101733.00;;;;10466988;28;20197;-78
2021/06/05 10:13:46;;;;;;;37.93;32.63;;;;;15.90;101726.00;;;;10458596;28;20217;-79
2021/06/05 10:18:59;;;;;;;39.77;35.43;;;;;15.90;101729.00;;;;10466088;28;20572;-79
2021/06/05 10:24:13;;;;;;;35.30;30.07;;;;;16.00;101730.00;;;;10510981;28;20201;-79
2021/06/05 10:29:36;;;;;;;40.93;35.40;;;;;16.10;101732.00;;;;10491687;28;20529;-79
2021/06/05 10:34:42;;;;;;;38.50;34.53;;;;;16.20;101748.00;;;;10471075;28;20260;-79
2021/06/05 10:39:46;;;;;;;38.13;34.10;;;;;16.10;101751.00;;;;10494178;28;20655;-78
2021/06/05 10:44:57;;;;;;;40.23;34.70;;;;;16.00;101749.00;;;;10477708;28;20704;-78
2021/06/05 10:50:30;;;;;;;45.90;38.37;;;;;15.80;101759.00;;;;10506787;28;20189;-78
2021/06/05 10:55:39;;;;;;;48.63;39.40;;;;;15.80;101765.00;;;;10492494;28;20217;-77
2021/06/05 11:00:42;;;;;;;44.17;37.40;;;;;15.90;101753.00;;;;10523235;28;20204;-79
2021/06/05 11:05:55;;;;;;;41.17;36.17;;;;;16.20;101750.00;;;;10497241;28;20662;-77
2021/06/05 11:11:01;;;;;;;42.70;35.97;;;;;16.30;101750.00;;;;10484193;28;20822;-79
2021/06/05 11:16:06;;;;;;;44.83;38.47;;;;;16.30;101743.00;;;;10476347;28;20406;-78
2021/06/05 11:21:39;;;;;;;45.03;38.20;;;;;16.40;101760.00;;;;10486239;28;20181;-78
2021/06/05 11:26:45;;;;;;;41.20;35.97;;;;;16.40;101770.00;;;;10457796;28;20201;-77
2021/06/05 11:31:49;;;;;;;34.03;27.90;;;;;16.30;101781.00;;;;10496422;28;20221;-78
2021/06/05 11:36:51;;;;;;;56.27;35.40;;;;;16.30;101780.00;;;;10460904;28;20216;-78
2021/06/05 11:41:55;;;;;;;38.97;31.93;;;;;16.40;101783.00;;;;10483736;28;20193;-79
2021/06/05 11:47:18;;;;;;;36.70;30.37;;;;;16.50;101783.00;;;;10488148;28;20201;-78
2021/06/05 11:52:29;;;;;;;30.60;26.90;;;;;16.60;101780.00;;;;10468038;28;20206;-78
2021/06/05 11:57:38;;;;;;;30.53;25.57;;;;;16.70;101784.00;;;;10485310;28;20268;-78
2021/06/05 12:02:43;;;;;;;22.17;19.77;;;;;16.70;101786.00;;;;10511358;28;20671;-78
2021/06/05 12:07:45;;;;;;;21.53;19.23;;;;;16.90;101788.00;;;;10495137;28;20205;-78
2021/06/05 12:12:49;;;;;;;21.00;18.87;;;;;17.20;101786.00;;;;10488242;28;20229;-79
2021/06/05 12:17:57;;;;;;;23.00;19.93;;;;;17.60;101785.00;;;;10506181;28;20188;-78
2021/06/05 12:23:19;;;;;;;24.33;21.87;;;;;17.90;101786.00;;;;10514745;28;20201;-78
2021/06/05 12:28:27;;;;;;;22.33;17.93;;;;;17.60;101782.00;;;;10544703;28;20516;-79
2021/06/05 12:33:32;;;;;;;21.13;18.88;;;;;17.20;101777.00;;;;10487656;28;20228;-78
2021/06/05 12:38:39;;;;;;;29.50;22.83;;;;;17.60;101774.00;;;;10507252;28;20909;-78
2021/06/05 12:43:43;;;;;;;28.23;24.07;;;;;18.30;101771.00;;;;10504374;28;20204;-78
2021/06/05 12:48:46;;;;;;;28.83;25.48;;;;;18.90;101767.00;;;;10525040;28;20631;-78
2021/06/05 12:54:01;;;;;;;29.15;25.98;;;;;19.60;101779.00;;;;10482911;28;20200;-79
2021/06/05 12:59:08;;;;;;;34.40;29.75;;;;;19.40;101785.00;;;;10501376;28;20185;-78
2021/06/05 13:04:33;;;;;;;29.70;26.58;;;;;19.40;101779.00;;;;10508895;28;20194;-79
2021/06/05 13:09:38;;;;;;;33.42;28.63;;;;;19.20;101778.00;;;;10503641;28;20197;-79
2021/06/05 13:14:40;;;;;;;21.88;19.35;;;;;18.90;101775.00;;;;10498145;28;20204;-79
2021/06/05 13:19:43;;;;;;;22.77;20.38;;;;;18.80;101783.00;;;;10502765;28;20753;-79
2021/06/05 13:25:03;;;;;;;19.95;17.98;;;;;18.40;101774.00;;;;10518315;28;20251;-79
2021/06/05 13:31:06;;;;;;;21.85;18.63;;;;;18.10;101771.00;;;;10475357;28;20185;-79
2021/06/05 13:36:29;;;;;;;21.58;18.63;;;;;18.20;101762.00;;;;10501954;28;20247;-79
2021/06/05 13:41:32;;;;;;;25.48;20.48;;;;;18.20;101769.00;;;;10539690;28;20192;-79
2021/06/05 13:46:35;;;;;;;28.42;22.80;;;;;19.30;101769.00;;;;10474635;28;20197;-78
2021/06/05 13:51:38;;;;;;;23.73;19.65;;;;;19.70;101760.00;;;;10514736;28;20209;-78
2021/06/05 13:56:42;;;;;;;24.77;21.15;;;;;19.90;101764.00;;;;10508565;28;20235;-79
2021/06/05 14:01:44;;;;;;;29.05;23.05;;;;;20.20;101764.00;;;;10493238;28;20633;-76
2021/06/05 14:06:47;;;;;;;28.80;25.63;;;;;19.90;101770.00;;;;10489217;28;20644;-78
2021/06/05 14:11:49;;;;;;;32.22;23.67;;;;;20.50;101749.00;;;;10453057;28;20201;-79
2021/06/05 14:16:51;;;;;;;25.38;22.83;;;;;20.50;101761.00;;;;10493614;28;20205;-79
2021/06/05 14:21:53;;;;;;;25.23;22.20;;;;;19.30;101772.00;;;;10477652;28;20671;-80
2021/06/05 14:26:54;;;;;;;25.45;22.38;;;;;18.30;101771.00;;;;10456612;28;20698;-80
2021/06/05 14:31:58;;;;;;;27.05;22.13;;;;;17.90;101766.00;;;;10474581;28;20294;-79
2021/06/05 14:37:01;;;;;;;28.05;25.05;;;;;19.30;101780.00;;;;10496771;28;20239;-79
2021/06/05 14:42:05;;;;;;;25.02;22.35;;;;;19.30;101782.00;;;;10458900;28;20188;-78
2021/06/05 14:47:07;;;;;;;22.48;19.60;;;;;18.80;101780.00;;;;10506696;28;20198;-78
2021/06/05 14:52:09;;;;;;;25.52;21.48;;;;;18.80;101783.00;;;;10473571;28;20201;-80
2021/06/05 14:57:12;;;;;;;25.67;21.98;;;;;18.40;101784.00;;;;10487245;28;20198;-80
2021/06/05 15:02:18;;;;;;;26.35;21.83;;;;;18.30;101792.00;;;;10483063;28;20188;-80
2021/06/05 15:07:21;;;;;;;24.63;19.77;;;;;18.40;101794.00;;;;10466046;28;20627;-80
2021/06/05 15:12:24;;;;;;;28.88;22.23;;;;;18.20;101803.00;;;;10445694;28;20278;-79
2021/06/05 15:17:28;;;;;;;28.73;22.42;;;;;18.10;101802.00;;;;10482505;28;20196;-79
2021/06/05 15:22:31;;;;;;;27.67;20.63;;;;;18.10;101805.00;;;;10535572;28;20189;-79
2021/06/05 15:27:33;;;;;;;24.02;19.23;;;;;17.90;101799.00;;;;10532330;28;20647;-79
2021/06/05 15:32:35;;;;;;;24.40;17.73;;;;;17.70;101797.00;;;;10507506;28;20606;-79
2021/06/05 15:37:37;;;;;;;22.35;17.08;;;;;17.40;101803.00;;;;10539977;28;20268;-80
2021/06/05 15:42:39;;;;;;;23.13;18.73;;;;;17.00;101810.00;;;;10488956;28;20655;-79
2021/06/05 15:47:42;;;;;;;22.17;18.87;;;;;16.50;101799.00;;;;10505123;28;20197;-80
2021/06/05 15:52:45;;;;;;;26.07;19.60;;;;;16.30;101806.00;;;;10492278;28;20211;-79
2021/06/05 15:57:47;;;;;;;29.33;19.93;;;;;16.50;101816.00;;;;10528187;28;20663;-79
2021/06/05 16:02:49;;;;;;;27.33;19.47;;;;;16.40;101801.00;;;;10492301;28;20197;-79
2021/06/05 16:07:51;;;;;;;27.70;20.00;;;;;16.40;101809.00;;;;10482744;28;20189;-79
2021/06/05 16:12:54;;;;;;;27.67;19.60;;;;;16.20;101816.00;;;;10486966;28;20676;-80
2021/06/05 16:17:58;;;;;;;31.53;21.63;;;;;16.00;101811.00;;;;10464314;28;20671;-78
2021/06/05 16:23:03;;;;;;;26.70;19.37;;;;;15.90;101793.00;;;;10456906;28;20755;-80
2021/06/05 16:28:07;;;;;;;27.33;20.30;;;;;15.80;101799.00;;;;10530992;28;20199;-80
2021/06/05 16:33:11;;;;;;;25.93;19.17;;;;;15.80;101807.00;;;;10516463;28;20274;-79
2021/06/05 16:38:14;;;;;;;32.03;21.60;;;;;16.20;101805.00;;;;10517654;28;20197;-79
2021/06/05 16:43:18;;;;;;;25.73;19.50;;;;;16.10;101806.00;;;;10517497;28;20226;-80
2021/06/05 16:48:22;;;;;;;27.53;19.63;;;;;16.00;101810.00;;;;10516649;28;20188;-79
2021/06/05 16:53:30;;;;;;;24.63;19.43;;;;;15.70;101814.00;;;;10499516;28;20571;-79
2021/06/05 16:58:32;;;;;;;26.87;19.97;;;;;15.50;101819.00;;;;10474909;28;20193;-80
2021/06/05 17:03:34;;;;;;;29.57;19.67;;;;;15.70;101817.00;;;;10473534;28;20192;-79
2021/06/05 17:08:36;;;;;;;26.60;19.50;;;;;15.90;101828.00;;;;10458713;28;20197;-80
2021/06/05 17:13:38;;;;;;;25.07;19.03;;;;;16.00;101829.00;;;;10475315;28;20209;-80
2021/06/05 17:18:40;;;;;;;23.37;17.70;;;;;16.00;101823.00;;;;10492115;28;20197;-80
2021/06/05 17:23:43;;;;;;;22.97;17.47;;;;;16.00;101832.00;;;;10477951;28;20201;-79
2021/06/05 17:28:46;;;;;;;21.03;17.30;;;;;16.00;101826.00;;;;10516407;28;20219;-80
2021/06/05 17:33:49;;;;;;;25.30;17.27;;;;;16.10;101836.00;;;;10483143;28;20231;-80
2021/06/05 17:38:51;;;;;;;21.37;16.80;;;;;15.90;101838.00;;;;10533142;28;20189;-80
2021/06/05 17:43:53;;;;;;;22.80;18.47;;;;;15.80;101840.00;;;;10500549;28;20193;-80
2021/06/05 17:48:56;;;;;;;21.80;16.87;;;;;15.90;101837.00;;;;10515773;28;20195;-79
2021/06/05 17:54:06;;;;;;;21.47;16.90;;;;;15.90;101839.00;;;;10498868;28;20239;-81
2021/06/05 17:59:08;;;;;;;21.60;16.37;;;;;15.90;101838.00;;;;10549183;28;20196;-79
2021/06/05 18:04:14;;;;;;;24.37;17.50;;;;;15.80;101842.00;;;;10497995;28;20200;-81
2021/06/05 18:09:16;;;;;;;24.77;19.30;;;;;15.70;101836.00;;;;10515884;28;20893;-81
2021/06/05 18:14:22;;;;;;;25.93;19.17;;;;;15.60;101838.00;;;;10515478;28;20721;-81
2021/06/05 18:19:27;;;;;;;24.90;18.90;;;;;15.50;101835.00;;;;10513371;28;20197;-80
2021/06/05 18:24:33;;;;;;;25.70;19.23;;;;;15.50;101842.00;;;;10513803;28;20200;-80
2021/06/05 18:29:35;;;;;;;25.00;18.50;;;;;15.50;101845.00;;;;10530527;28;20196;-80
2021/06/05 18:34:40;;;;;;;20.93;17.90;;;;;15.50;101847.00;;;;10530598;28;20234;-81
2021/06/05 18:39:43;;;;;;;23.73;18.47;;;;;15.50;101850.00;;;;10531435;28;20612;-81
2021/06/05 18:44:45;;;;;;;20.77;18.50;;;;;15.60;101855.00;;;;10514018;28;20227;-81
2021/06/05 18:49:49;;;;;;;21.20;16.07;;;;;15.50;101870.00;;;;10513324;28;20241;-80
2021/06/05 18:54:51;;;;;;;18.67;13.60;;;;;15.50;101869.00;;;;10483657;28;20209;-79
2021/06/05 18:59:54;;;;;;;15.60;11.50;;;;;15.40;101877.00;;;;10437415;28;20657;-79
2021/06/05 19:04:56;;;;;;;17.30;10.87;;;;;15.30;101877.00;;;;10478352;28;20197;-80
2021/06/05 19:09:58;;;;;;;17.13;10.67;;;;;15.30;101883.00;;;;10529596;28;20195;-79
2021/06/05 19:15:00;;;;;;;16.43;10.13;;;;;15.20;101886.00;;;;10529298;28;20556;-80
2021/06/05 19:20:05;;;;;;;12.87;11.17;;;;;15.20;101888.00;;;;10511376;28;20679;-79
2021/06/05 19:25:12;;;;;;;17.97;11.37;;;;;15.10;101888.00;;;;10494754;28;20227;-81
2021/06/05 19:30:22;;;;;;;15.47;11.53;;;;;15.00;101895.00;;;;10511696;28;20261;-80
2021/06/05 19:35:26;;;;;;;16.03;11.40;;;;;15.00;101897.00;;;;10511239;28;20225;-80
2021/06/05 19:40:30;;;;;;;19.10;11.83;;;;;14.90;101894.00;;;;10510290;28;20275;-80
2021/06/05 19:45:36;;;;;;;19.77;13.47;;;;;14.80;101911.00;;;;10494714;28;20666;-80
2021/06/05 19:50:39;;;;;;;19.73;12.77;;;;;14.70;101920.00;;;;10510848;28;20261;-80
2021/06/05 19:55:42;;;;;;;16.73;12.93;;;;;14.70;101912.00;;;;10494537;28;20205;-80
2021/06/05 20:00:49;;;;;;;18.63;13.03;;;;;14.60;101918.00;;;;10494181;28;20228;-80
2021/06/05 20:05:51;;;;;;;20.33;12.40;;;;;14.60;101916.00;;;;10477228;28;20196;-79
2021/06/05 20:10:54;;;;;;;21.07;12.97;;;;;14.50;101920.00;;;;10510308;28;20195;-79
2021/06/05 20:15:58;;;;;;;17.23;11.33;;;;;14.50;101921.00;;;;10494469;28;20243;-80
2021/06/05 20:21:05;;;;;;;12.37;10.33;;;;;14.40;101910.00;;;;10477933;28;20189;-79
2021/06/05 20:26:09;;;;;;;14.80;10.37;;;;;14.40;101920.00;;;;10487210;28;20200;-79
2021/06/05 20:31:13;;;;;;;15.87;10.17;;;;;14.30;101933.00;;;;10468721;28;20189;-79
2021/06/05 20:36:15;;;;;;;12.43;10.27;;;;;14.30;101939.00;;;;10435679;28;20688;-79
2021/06/05 20:41:17;;;;;;;18.70;10.30;;;;;14.20;101948.00;;;;10459414;28;20194;-79
2021/06/05 20:46:20;;;;;;;16.20;10.40;;;;;14.20;101950.00;;;;10475343;28;20177;-78
2021/06/05 20:51:26;;;;;;;14.07;10.57;;;;;14.10;101955.00;;;;10493335;28;20186;-79
2021/06/05 20:56:28;;;;;;;15.57;11.67;;;;;14.10;101959.00;;;;10492778;28;20213;-79
2021/06/05 21:01:30;;;;;;;17.97;12.20;;;;;14.10;101955.00;;;;10492930;28;20649;-80
2021/06/05 21:06:35;;;;;;;18.07;12.47;;;;;14.10;101957.00;;;;10460604;28;20186;-79
2021/06/05 21:11:38;;;;;;;17.93;11.87;;;;;14.10;101960.00;;;;10458654;28;20743;-79
2021/06/05 21:16:40;;;;;;;18.27;12.00;;;;;14.10;101962.00;;;;10474812;28;20255;-80
2021/06/05 21:21:42;;;;;;;17.03;13.07;;;;;14.10;101961.00;;;;10475592;28;20553;-80
2021/06/05 21:26:45;;;;;;;18.33;12.67;;;;;14.10;101955.00;;;;10486727;28;20197;-78
2021/06/05 21:31:49;;;;;;;15.40;11.60;;;;;14.10;101949.00;;;;10499349;28;20239;-80
2021/06/05 21:36:51;;;;;;;17.87;12.30;;;;;14.10;101961.00;;;;10532522;28;20216;-78
2021/06/05 21:41:53;;;;;;;16.40;12.63;;;;;14.00;101963.00;;;;10499943;28;20227;-79
2021/06/05 21:46:55;;;;;;;24.37;12.30;;;;;14.00;101953.00;;;;10480435;28;20193;-80
2021/06/05 21:51:58;;;;;;;20.57;12.90;;;;;13.90;101966.00;;;;10471595;28;20198;-80
2021/06/05 21:57:01;;;;;;;19.80;13.03;;;;;13.80;101959.00;;;;10503469;28;20216;-80
2021/06/05 22:02:03;;;;;;;23.67;13.87;;;;;13.70;101958.00;;;;10513193;28;20192;-80
2021/06/05 22:07:05;;;;;;;18.57;13.67;;;;;13.60;101964.00;;;;10499212;28;20217;-81
2021/06/05 22:12:10;;;;;;;19.10;13.80;;;;;13.60;101957.00;;;;10517288;28;20196;-80
2021/06/05 22:17:16;;;;;;;18.60;13.10;;;;;13.60;101949.00;;;;10513140;28;20235;-81
2021/06/05 22:22:26;;;;;;;19.47;13.53;;;;;13.70;101953.00;;;;10513446;28;20236;-80
2021/06/05 22:27:34;;;;;;;15.70;12.80;;;;;13.70;101961.00;;;;10478848;28;20209;-80
2021/06/05 22:32:36;;;;;;;22.77;13.60;;;;;13.70;101963.00;;;;10488193;28;20213;-80
2021/06/05 22:37:38;;;;;;;16.67;12.83;;;;;13.60;101956.00;;;;10455020;28;20209;-79
2021/06/05 22:42:41;;;;;;;18.07;12.87;;;;;13.60;101956.00;;;;10471437;28;20192;-79
2021/06/05 22:47:43;;;;;;;19.20;13.37;;;;;13.60;101948.00;;;;10454069;28;20200;-80
2021/06/05 22:52:44;;;;;;;18.53;13.00;;;;;13.50;101949.00;;;;10438078;28;20607;-80
2021/06/05 22:57:47;;;;;;;21.17;14.37;;;;;13.40;101948.00;;;;10490220;28;20207;-80
2021/06/05 23:02:49;;;;;;;20.73;15.43;;;;;13.30;101950.00;;;;10511660;28;20181;-80
2021/06/05 23:07:51;;;;;;;20.40;15.90;;;;;13.20;101947.00;;;;10496145;28;20204;-79
2021/06/05 23:12:53;;;;;;;20.13;16.10;;;;;13.00;101949.00;;;;10496084;28;20221;-79
2021/06/05 23:17:56;;;;;;;23.73;15.33;;;;;13.00;101946.00;;;;10495768;28;20189;-80
2021/06/05 23:23:04;;;;;;;23.07;16.57;;;;;13.00;101953.00;;;;10494839;28;20184;-80
2021/06/05 23:28:09;;;;;;;30.27;17.17;;;;;13.00;101959.00;;;;10439613;28;20204;-79
2021/06/05 23:33:18;;;;;;;32.37;18.90;;;;;13.00;101948.00;;;;10471961;28;20684;-80
2021/06/05 23:38:22;;;;;;;27.97;19.70;;;;;13.00;101944.00;;;;10470836;28;20212;-79
2021/06/05 23:43:25;;;;;;;27.70;20.57;;;;;13.00;101948.00;;;;10452831;28;20194;-79
2021/06/05 23:48:28;;;;;;;32.23;21.13;;;;;13.00;101952.00;;;;10469530;28;20189;-79
2021/06/05 23:53:30;;;;;;;32.47;19.33;;;;;13.00;101947.00;;;;10453119;28;20215;-79
2021/06/05 23:58:32;;;;;;;31.33;20.83;;;;;13.10;101951.00;;;;10527367;28;20548;-79
